Home PIREPS Pireps

Flight BEL2592

  • Submitted By: AndrĂ© Vincent
  • Departure Airport: Tegel (EDDT)
  • Arrival Airport: Bruxelles National (EBBR)
  • Aircraft: A319-112 (OO-SSG)
  • Flight Time: 01.10
  • Date Submitted: 30/12/2016
  • Status: Accepted
Flight Details
Gross Revenue:
(123 load / € 86.00 per unit
€ 10,578.00
Fuel Cost:
(5625 fuel used @ 5.1 / unit)
€ 28,687.50

Additional Log Information:

View Log

Aircraft Used in flight is Boeing 737-800 sabena paint
10:55 Brakes are On
10:56 Brakes are Released
11:01 You Took off @ 207 Knots and Flaps at Position 2
Departure Weather
EDDT 300920Z 26003KT 220V280 CAVOK M00/M01 Q1037 NOSIGrn
11:01 You are Airborne and your Navigation Lights are off
11:01 Landing Gear Up @ 210 Knots and 210 Feet
11:48 You exceeded maximum bank angle
11:49 Above FL100 you need to switch of the landing lights
11:49 Above FL100 you need to switch of the landing lights
11:50 Below 10000 feet you are not allowed to go over 250 knots
11:57 Landing Gear Down @ 143 Knots and 2970 Feet
12:03 You Landed @ 111 Knots and with -250 Vertical Speed
Arrival Weather
EBBR 301050Z 19005KT CAVOK 02/00 Q1037 NOSIGrn
12:05 Brakes are On
12:06 Brussels Bel-Track1.0.1.2

Route Map

Corporate About Us Our Team Vacancies Information Fleet Route Network Rules and Regulations Operations Flight Schedules Event Center Tours Partners IVAO Vatsim Acars dev FSCB

fb Users Online Belgium Serge Van Laethem,
1 Pilot(s) and 126 Guest(s) Online
CMS by phpVMS - Design by Crazycreatives.com - Copyright © 2018 - Brussels Airlines Virtual